»·PEaware :: N52858 KBFL-KMHV

N52858 :: KBFL-KMHV

FLIGHT INFORMATION

Flight Status: Arrived
Operator: Privately registered:
United States
More flights under this callsign
Pilot: Anthony C. (36937)
Aircraft: CESSNA 172 SKYHAWK
(C172)
More flights by this aircraft type
Origin: KBFL Meadows
United States
Destination: KMHV Mojave
United States
More flights between these airports :: More routes between these airports
Route:
File this flight plan on PilotEdge
Remarks:
Altitude:
(Current/Filed)
7,500ft
Speed:
(Current/Filed)
110kts
Departed: 25-Jan-22 05:21 PM
Arrived: 25-Jan-22 05:58 PM
Distance/Time
Traveled:
50nm/0:37
Distance/Time
To Go:
Arrived

Flight Plot

Page will automatically refresh every two minutes.


Map Options




Map Legend


Flown Route
Filed Route
Departure Airport
Arrival Airport
Navaid (VOR, NDB)
Fix

Horizontal Profiles

Position Reports

Time Latitude Longitude Heading Altitude Ground
Speed
25-Jan-22 17:01 35.435606 -119.053242 180 490ft 0kts
25-Jan-22 17:02 35.435608 -119.053242 180 490ft 0kts
25-Jan-22 17:03 35.435609 -119.053242 180 490ft 0kts
25-Jan-22 17:04 35.435611 -119.053242 180 490ft 0kts
25-Jan-22 17:05 35.435612 -119.053242 180 490ft 0kts
25-Jan-22 17:06 35.435613 -119.053242 180 490ft 0kts
25-Jan-22 17:07 35.435614 -119.053242 180 490ft 0kts
25-Jan-22 17:08 35.435615 -119.053242 180 490ft 0kts
25-Jan-22 17:09 35.435616 -119.053242 180 490ft 0kts
25-Jan-22 17:10 35.435616 -119.053242 180 490ft 0kts
25-Jan-22 17:11 35.435616 -119.053242 179 490ft 0kts
25-Jan-22 17:12 35.435616 -119.053242 179 490ft 0kts
25-Jan-22 17:13 35.435617 -119.053242 179 490ft 0kts
25-Jan-22 17:14 35.435617 -119.053242 179 490ft 0kts
25-Jan-22 17:15 35.434179 -119.054349 129 486ft 10kts
25-Jan-22 17:16 35.430285 -119.049626 135 482ft 24kts
25-Jan-22 17:17 35.425821 -119.044229 134 471ft 13kts
25-Jan-22 17:19 35.425318 -119.044066 240 471ft 0kts
25-Jan-22 17:20 35.425644 -119.044592 266 471ft 0kts
25-Jan-22 17:21 35.426895 -119.047871 316 481ft 45kts
25-Jan-22 17:22 35.442276 -119.069890 299 866ft 92kts
25-Jan-22 17:23 35.459147 -119.073104 83 1581ft 80kts
25-Jan-22 17:24 35.444585 -119.045686 133 1877ft 111kts
25-Jan-22 17:25 35.424522 -119.017776 131 2325ft 104kts
25-Jan-22 17:26 35.409834 -118.990894 116 2920ft 89kts
25-Jan-22 17:27 35.400260 -118.964280 117 3533ft 82kts
25-Jan-22 17:28 35.392228 -118.939256 112 4135ft 75kts
25-Jan-22 17:29 35.385274 -118.916603 114 4739ft 66kts
25-Jan-22 17:30 35.378801 -118.896781 113 5264ft 60kts
25-Jan-22 17:31 35.371976 -118.876702 114 5629ft 73kts
25-Jan-22 17:32 35.363312 -118.852236 114 5981ft 80kts
25-Jan-22 17:33 35.353519 -118.829255 119 6525ft 70kts
25-Jan-22 17:34 35.344237 -118.811834 121 7088ft 45kts
25-Jan-22 17:35 35.334317 -118.792526 120 7177ft 82kts
25-Jan-22 17:36 35.320063 -118.765346 120 7178ft 100kts
25-Jan-22 17:37 35.305289 -118.737097 119 7320ft 96kts
25-Jan-22 17:38 35.291452 -118.708969 118 7463ft 99kts
25-Jan-22 17:39 35.277608 -118.680419 117 7455ft 94kts
25-Jan-22 17:40 35.263954 -118.652670 118 7465ft 99kts
25-Jan-22 17:40 35.251925 -118.628464 118 7451ft 99kts
25-Jan-22 17:42 35.234515 -118.593803 118 7455ft 103kts
25-Jan-22 17:43 35.219326 -118.563595 116 7455ft 105kts
25-Jan-22 17:44 35.204701 -118.533357 116 7449ft 101kts
25-Jan-22 17:45 35.190382 -118.504068 116 7399ft 101kts
25-Jan-22 17:45 35.178608 -118.479906 115 7377ft 96kts
25-Jan-22 17:46 35.164594 -118.452101 116 7385ft 96kts
25-Jan-22 17:47 35.150072 -118.425045 118 7360ft 94kts
25-Jan-22 17:49 35.130258 -118.393332 123 7213ft 91kts
25-Jan-22 17:49 35.113352 -118.375544 135 7265ft 102kts
25-Jan-22 17:50 35.084996 -118.357946 143 6790ft 125kts
25-Jan-22 17:51 35.054505 -118.338970 114 6293ft 99kts
25-Jan-22 17:52 35.057160 -118.307864 76 5957ft 100kts
25-Jan-22 17:53 35.060259 -118.273913 86 5607ft 101kts
25-Jan-22 17:54 35.060310 -118.240671 87 5229ft 96kts
25-Jan-22 17:55 35.059729 -118.208100 87 4230ft 96kts
25-Jan-22 17:56 35.059335 -118.178899 90 3177ft 66kts
25-Jan-22 17:57 35.059242 -118.161014 91 2773ft 27kts
25-Jan-22 17:58 35.058292 -118.157737 178 2767ft 0kts
25-Jan-22 17:59 35.058292 -118.157737 178 2767ft 0kts
25-Jan-22 18:00 35.058080 -118.157740 180 2767ft 4kts
25-Jan-22 18:01 35.057164 -118.157423 265 2768ft 0kts
25-Jan-22 18:02 35.057164 -118.157423 265 2768ft 0kts
25-Jan-22 18:03 35.057164 -118.157423 265 2768ft 0kts
25-Jan-22 18:04 35.057164 -118.157423 265 2768ft 0kts
25-Jan-22 18:05 35.057164 -118.157423 265 2768ft 0kts
25-Jan-22 18:06 35.057164 -118.157423 265 2768ft 0kts
25-Jan-22 18:07 35.057164 -118.157423 265 2768ft 0kts
25-Jan-22 18:08 35.057164 -118.157423 265 2768ft 0kts
25-Jan-22 18:09 35.057164 -118.157423 265 2768ft 0kts
25-Jan-22 18:10 35.057164 -118.157423 265 2768ft 0kts
25-Jan-22 18:11 35.057164 -118.157423 265 2768ft 0kts
25-Jan-22 18:12 35.057164 -118.157423 265 2768ft 0kts

Navigation Log

Ident Type
Flight plan parsing failed, navigation log unavailable